Time;durP1;ratioP1;P1;durP2;ratioP2;P2;SDS_P1;SDS_P2;PMS_P1;PMS_P2;Temp;Humidity;BMP_temperature;BMP_pressure;BME280_temperature;BME280_humidity;BME280_pressure;Samples;Min_cycle;Max_cycle;Signal;HPM_P1;HPM_P2
2022/02/09 00:01:48;;;;;;;;;;;8.90;99.90;;;;;;5093955;28;19963;-78
2022/02/09 00:04:25;;;;;;;;;;;8.80;99.90;;;;;;5084753;28;19988;-79
2022/02/09 00:07:04;;;;;;;;;;;8.80;99.90;;;;;;5084007;28;19960;-79
2022/02/09 00:09:30;;;;;;;;;;;8.80;99.90;;;;;;5090213;28;19962;-78
2022/02/09 00:12:05;;;;;;;;;;;8.80;99.90;;;;;;5097101;28;19924;-79
2022/02/09 00:14:40;;;;;;;;;;;8.80;99.90;;;;;;5084357;28;19947;-78
2022/02/09 00:17:31;;;;;;;;;;;8.80;99.90;;;;;;5087503;28;19925;-79
2022/02/09 00:20:19;;;;;;;;;;;8.80;99.90;;;;;;5102375;28;19935;-77
2022/02/09 00:23:25;;;;;;;;;;;8.80;99.90;;;;;;5088671;28;19928;-78
2022/02/09 00:28:47;;;;;;;;;;;8.80;99.90;;;;;;5077140;28;19925;-79
2022/02/09 01:38:08;;;;;;;;;;;8.60;99.90;;;;;;5066143;28;19932;-77
2022/02/09 01:57:04;;;;;;;;;;;8.60;99.90;;;;;;5075729;28;19982;-77
2022/02/09 01:59:31;;;;;;;;;;;8.70;99.90;;;;;;5078677;28;19925;-77
2022/02/09 02:01:59;;;;;;;;;;;8.70;99.90;;;;;;5074815;28;19931;-77
2022/02/09 02:04:25;;;;;;;;;;;8.70;99.90;;;;;;5075694;28;19935;-77
2022/02/09 02:06:54;;;;;;;;;;;8.60;99.90;;;;;;5079252;28;20022;-78
2022/02/09 02:09:21;;;;;;;;;;;8.60;99.90;;;;;;5067263;28;19928;-77
2022/02/09 02:11:53;;;;;;;;;;;8.70;99.90;;;;;;5064289;28;19932;-77
2022/02/09 02:14:25;;;;;;;;;;;8.70;99.90;;;;;;5080409;28;19940;-78
2022/02/09 02:16:56;;;;;;;;;;;8.70;99.90;;;;;;5080100;28;19929;-76
2022/02/09 02:19:35;;;;;;;;;;;8.70;99.90;;;;;;5077755;28;19983;-77
2022/02/09 02:22:14;;;;;;;;;;;8.70;99.90;;;;;;5078862;28;19991;-78
2022/02/09 02:27:48;;;;;;;;;;;8.80;99.90;;;;;;5073678;28;19925;-77
2022/02/09 02:33:22;;;;;;;;;;;8.80;99.90;;;;;;5058742;28;19924;-77
2022/02/09 02:36:07;;;;;;;;;;;8.80;99.90;;;;;;5074140;28;19943;-77
2022/02/09 02:45:16;;;;;;;;;;;8.80;99.90;;;;;;5074819;28;19924;-77
2022/02/09 02:47:40;;;;;;;;;;;8.80;99.90;;;;;;5080403;28;19978;-77
2022/02/09 03:09:46;;;;;;;;;;;8.80;99.90;;;;;;5073157;28;19990;-77
2022/02/09 03:12:17;;;;;;;;;;;8.80;99.90;;;;;;5077752;28;19932;-77
2022/02/09 03:14:51;;;;;;;;;;;8.80;99.90;;;;;;5065088;28;19968;-77
2022/02/09 03:17:22;;;;;;;;;;;8.70;99.90;;;;;;5065674;28;19933;-77
2022/02/09 03:19:52;;;;;;;;;;;8.70;99.90;;;;;;5076136;28;19931;-77
2022/02/09 03:22:24;;;;;;;;;;;8.70;99.90;;;;;;5078004;28;19924;-77
2022/02/09 03:30:54;;;;;;;;;;;8.70;99.90;;;;;;5042022;28;19924;-77
2022/02/09 03:44:33;;;;;;;;;;;8.70;99.90;;;;;;5082031;28;19927;-78
2022/02/09 03:53:08;;;;;;;;;;;8.60;99.90;;;;;;5065402;28;19946;-77
2022/02/09 03:55:48;;;;;;;;;;;8.60;99.90;;;;;;5070312;28;19946;-78
2022/02/09 03:58:15;;;;;;;;;;;8.60;99.90;;;;;;5099485;28;19928;-80
2022/02/09 04:00:46;;;;;;;;;;;8.60;99.90;;;;;;5086923;28;19924;-79
2022/02/09 04:03:15;;;;;;;;;;;8.60;99.90;;;;;;5087613;28;19963;-78
2022/02/09 04:05:44;;;;;;;;;;;8.60;99.90;;;;;;5082978;28;19924;-78
2022/02/09 04:08:14;;;;;;;;;;;8.60;99.90;;;;;;5085771;28;20289;-78
2022/02/09 04:10:44;;;;;;;;;;;8.60;99.90;;;;;;5082914;28;20011;-78
2022/02/09 04:13:18;;;;;;;;;;;8.60;99.90;;;;;;5084527;28;19925;-78
2022/02/09 04:15:56;;;;;;;;;;;8.60;99.90;;;;;;5081562;28;19935;-79
2022/02/09 04:18:42;;;;;;;;;;;8.60;99.90;;;;;;5084188;28;19924;-78
2022/02/09 04:37:49;;;;;;;;;;;8.60;99.90;;;;;;5072851;28;20021;-78
2022/02/09 04:40:31;;;;;;;;;;;8.50;99.90;;;;;;5074926;28;19992;-76
2022/02/09 04:43:19;;;;;;;;;;;8.60;99.90;;;;;;5072486;28;19933;-77
2022/02/09 04:46:03;;;;;;;;;;;8.50;99.90;;;;;;5069768;28;19931;-78
2022/02/09 04:48:51;;;;;;;;;;;8.50;99.90;;;;;;5076878;28;19929;-78
2022/02/09 04:51:22;;;;;;;;;;;8.50;99.90;;;;;;5073060;28;19980;-78
2022/02/09 04:56:43;;;;;;;;;;;8.50;99.90;;;;;;5076175;28;20021;-78
2022/02/09 04:59:16;;;;;;;;;;;8.60;99.90;;;;;;5077984;28;19929;-78
2022/02/09 05:04:56;;;;;;;;;;;8.60;99.90;;;;;;5055006;28;19925;-77
2022/02/09 05:18:34;;;;;;;;;;;8.60;99.90;;;;;;5078474;28;19931;-79
2022/02/09 05:21:36;;;;;;;;;;;8.60;99.90;;;;;;5090852;28;19925;-79
2022/02/09 05:24:11;;;;;;;;;;;8.60;99.90;;;;;;5078749;28;19928;-81
2022/02/09 05:26:41;;;;;;;;;;;8.60;99.90;;;;;;5083645;28;20142;-80
2022/02/09 05:29:08;;;;;;;;;;;8.60;99.90;;;;;;5085019;28;19968;-77
2022/02/09 05:31:35;;;;;;;;;;;8.60;99.90;;;;;;5075868;28;19924;-76
2022/02/09 05:34:01;;;;;;;;;;;8.60;99.90;;;;;;5075048;28;19967;-77
2022/02/09 05:36:29;;;;;;;;;;;8.60;99.90;;;;;;5073047;28;19924;-77
2022/02/09 05:38:56;;;;;;;;;;;8.60;99.90;;;;;;5065571;28;19931;-76
2022/02/09 05:41:23;;;;;;;;;;;8.50;99.90;;;;;;5067801;28;19925;-77
2022/02/09 05:43:50;;;;;;;;;;;8.50;99.90;;;;;;5066848;28;20302;-76
2022/02/09 05:46:51;;;;;;;;;;;8.50;99.90;;;;;;5070722;28;19924;-76
2022/02/09 05:51:58;;;;;;;;;;;8.50;99.90;;;;;;5066574;28;20295;-76
2022/02/09 05:54:43;;;;;;;;;;;8.60;99.90;;;;;;5073625;28;19932;-76
2022/02/09 05:57:25;;;;;;;;;;;8.50;99.90;;;;;;5070962;28;19928;-77
2022/02/09 05:59:52;;;;;;;;;;;8.60;99.90;;;;;;5070735;28;19970;-77
2022/02/09 06:02:21;;;;;;;;;;;8.60;99.90;;;;;;5071129;28;19948;-76
2022/02/09 06:04:48;;;;;;;;;;;8.60;99.90;;;;;;5072470;28;19925;-76
2022/02/09 06:07:20;;;;;;;;;;;8.60;99.90;;;;;;5073508;28;19928;-77
2022/02/09 06:09:46;;;;;;;;;;;8.60;99.90;;;;;;5079508;28;19928;-76
2022/02/09 06:12:19;;;;;;;;;;;8.60;99.90;;;;;;5068226;28;19986;-74
2022/02/09 06:15:15;;;;;;;;;;;8.60;99.90;;;;;;5069238;28;19924;-77
2022/02/09 06:20:25;;;;;;;;;;;8.60;99.90;;;;;;5074659;28;19931;-77
2022/02/09 06:22:53;;;;;;;;;;;8.60;99.90;;;;;;5071120;28;20029;-75
2022/02/09 06:25:20;;;;;;;;;;;8.60;99.90;;;;;;5062419;28;19924;-75
2022/02/09 06:27:48;;;;;;;;;;;8.60;99.90;;;;;;5063774;28;20023;-75
2022/02/09 06:30:15;;;;;;;;;;;8.60;99.90;;;;;;5052967;28;19929;-74
2022/02/09 06:32:42;;;;;;;;;;;8.60;99.90;;;;;;5066822;28;19963;-74
2022/02/09 06:35:09;;;;;;;;;;;8.60;99.90;;;;;;5068324;28;20414;-75
2022/02/09 06:37:40;;;;;;;;;;;8.60;99.90;;;;;;5067848;28;19994;-75
2022/02/09 06:40:10;;;;;;;;;;;8.60;99.90;;;;;;5056071;28;19935;-75
2022/02/09 06:42:39;;;;;;;;;;;8.60;99.90;;;;;;5063871;28;19936;-75
2022/02/09 06:45:07;;;;;;;;;;;8.60;99.90;;;;;;5067191;28;20291;-76
2022/02/09 06:47:37;;;;;;;;;;;8.60;99.90;;;;;;5056936;28;20299;-75
2022/02/09 06:50:07;;;;;;;;;;;8.60;99.90;;;;;;5061870;28;22235;-76
2022/02/09 06:52:37;;;;;;;;;;;8.60;99.90;;;;;;5062828;28;19932;-76
2022/02/09 06:55:15;;;;;;;;;;;8.60;99.90;;;;;;5059387;28;19928;-76
2022/02/09 06:58:00;;;;;;;;;;;8.60;99.90;;;;;;5060480;28;19932;-75
2022/02/09 07:00:29;;;;;;;;;;;8.60;99.90;;;;;;5058778;28;19924;-76
2022/02/09 07:02:55;;;;;;;;;;;8.60;99.90;;;;;;5065935;28;19925;-75
2022/02/09 07:05:22;;;;;;;;;;;8.60;99.90;;;;;;5064956;28;19925;-76
2022/02/09 07:07:49;;;;;;;;;;;8.60;99.90;;;;;;5065502;28;20023;-76
2022/02/09 07:10:15;;;;;;;;;;;8.60;99.90;;;;;;5058961;28;19939;-75
2022/02/09 07:12:44;;;;;;;;;;;8.60;99.90;;;;;;5056948;28;20384;-75
2022/02/09 07:15:14;;;;;;;;;;;8.60;99.90;;;;;;5057737;28;19934;-74
2022/02/09 07:17:43;;;;;;;;;;;8.60;99.90;;;;;;5060374;28;20011;-74
2022/02/09 07:20:15;;;;;;;;;;;8.60;99.90;;;;;;5053867;28;19936;-74
2022/02/09 07:22:43;;;;;;;;;;;8.60;99.90;;;;;;5060806;28;19960;-74
2022/02/09 07:25:14;;;;;;;;;;;8.60;99.90;;;;;;5062319;28;19928;-76
2022/02/09 07:27:48;;;;;;;;;;;8.60;99.90;;;;;;5060578;28;20183;-75
2022/02/09 07:30:17;;;;;;;;;;;8.70;99.90;;;;;;5056082;28;19971;-75
2022/02/09 07:32:43;;;;;;;;;;;8.60;99.90;;;;;;5057632;28;20274;-74
2022/02/09 07:35:10;;;;;;;;;;;8.60;99.90;;;;;;5063785;28;19932;-75
2022/02/09 07:37:37;;;;;;;;;;;8.60;99.90;;;;;;5058647;28;19924;-75
2022/02/09 07:40:10;;;;;;;;;;;8.50;99.90;;;;;;5065280;28;19932;-74
2022/02/09 07:42:42;;;;;;;;;;;8.60;99.90;;;;;;5068225;28;19932;-75
2022/02/09 07:45:26;;;;;;;;;;;8.60;99.90;;;;;;5059551;28;19929;-75
2022/02/09 07:48:13;;;;;;;;;;;8.60;99.90;;;;;;5067169;28;19925;-76
2022/02/09 07:50:42;;;;;;;;;;;8.60;99.90;;;;;;5070579;28;19925;-75
2022/02/09 07:53:12;;;;;;;;;;;8.60;99.90;;;;;;5058157;28;19928;-76
2022/02/09 07:55:39;;;;;;;;;;;8.60;99.90;;;;;;5064354;28;19974;-75
2022/02/09 07:58:06;;;;;;;;;;;8.60;99.90;;;;;;5063006;28;19924;-75
2022/02/09 08:00:33;;;;;;;;;;;8.70;99.90;;;;;;5064799;28;19939;-75
2022/02/09 08:03:02;;;;;;;;;;;8.70;99.90;;;;;;5070607;28;19964;-75
2022/02/09 08:05:29;;;;;;;;;;;8.60;99.90;;;;;;5057525;28;19969;-75
2022/02/09 08:07:56;;;;;;;;;;;8.70;99.90;;;;;;5066815;28;20291;-75
2022/02/09 08:10:27;;;;;;;;;;;8.60;99.90;;;;;;5065699;28;19972;-75
2022/02/09 08:24:21;;;;;;;;;;;8.70;99.90;;;;;;5064631;28;19924;-75
2022/02/09 08:26:54;;;;;;;;;;;8.70;99.90;;;;;;5068416;28;20380;-75
2022/02/09 08:29:26;;;;;;;;;;;8.80;99.90;;;;;;5068702;28;20930;-75
2022/02/09 08:34:42;;;;;;;;;;;8.80;99.90;;;;;;5070117;28;19924;-74
2022/02/09 08:37:08;;;;;;;;;;;8.80;99.90;;;;;;5045549;28;20008;-75
2022/02/09 08:39:35;;;;;;;;;;;8.90;99.90;;;;;;5061981;28;19924;-75
2022/02/09 08:42:02;;;;;;;;;;;8.90;99.90;;;;;;5061516;28;22196;-74
2022/02/09 08:44:29;;;;;;;;;;;8.90;99.90;;;;;;5063170;28;19925;-74
2022/02/09 08:46:55;;;;;;;;;;;9.00;99.90;;;;;;5066306;28;19932;-76
2022/02/09 08:49:22;;;;;;;;;;;9.00;99.90;;;;;;5054086;28;20394;-75
2022/02/09 08:51:50;;;;;;;;;;;9.00;99.90;;;;;;5067064;28;19928;-76
2022/02/09 08:54:18;;;;;;;;;;;9.00;99.90;;;;;;5066305;28;20383;-77
2022/02/09 08:56:45;;;;;;;;;;;9.00;99.90;;;;;;5059926;28;19987;-76
2022/02/09 08:59:11;;;;;;;;;;;9.00;99.90;;;;;;5061955;28;19932;-76
2022/02/09 09:01:41;;;;;;;;;;;9.00;99.90;;;;;;5056584;28;20007;-75
2022/02/09 09:04:17;;;;;;;;;;;9.00;99.90;;;;;;5067352;28;19928;-76
2022/02/09 09:06:47;;;;;;;;;;;9.10;99.90;;;;;;5065446;28;19925;-76
2022/02/09 09:09:25;;;;;;;;;;;9.10;99.90;;;;;;5062652;28;19928;-75
2022/02/09 09:14:52;;;;;;;;;;;9.10;99.90;;;;;;5072667;28;19979;-76
2022/02/09 09:59:34;;;;;;;;;;;9.70;99.90;;;;;;5062405;28;19943;-76
2022/02/09 10:02:03;;;;;;;;;;;9.80;99.90;;;;;;5068860;28;19994;-76
2022/02/09 10:35:15;;;;;;;;;;;10.50;99.90;;;;;;5064088;28;19924;-76
2022/02/09 10:37:42;;;;;;;;;;;10.60;99.90;;;;;;5071710;28;20466;-76
2022/02/09 10:40:13;;;;;;;;;;;10.70;99.90;;;;;;5068425;28;20003;-77
2022/02/09 10:42:43;;;;;;;;;;;10.50;99.90;;;;;;5067798;28;20018;-77
2022/02/09 10:45:30;;;;;;;;;;;10.50;99.90;;;;;;5062890;28;19936;-77
2022/02/09 10:47:58;;;;;;;;;;;10.70;99.90;;;;;;5055959;28;20062;-77
2022/02/09 10:50:27;;;;;;;;;;;10.90;99.90;;;;;;5069883;28;20010;-79
2022/02/09 10:52:55;;;;;;;;;;;11.10;99.90;;;;;;5067535;28;19924;-76
2022/02/09 10:55:29;;;;;;;;;;;11.20;99.90;;;;;;5065089;28;19928;-77
2022/02/09 10:57:56;;;;;;;;;;;11.20;99.90;;;;;;5059497;28;19951;-76
2022/02/09 11:00:24;;;;;;;;;;;11.10;99.90;;;;;;5065300;28;19963;-76
2022/02/09 11:02:51;;;;;;;;;;;10.90;99.90;;;;;;5070039;28;20400;-76
2022/02/09 11:05:20;;;;;;;;;;;10.70;99.90;;;;;;5063067;28;19939;-77
2022/02/09 11:07:47;;;;;;;;;;;10.70;99.90;;;;;;5065632;28;20440;-76
2022/02/09 11:10:14;;;;;;;;;;;10.80;99.90;;;;;;5059795;28;19924;-75
2022/02/09 11:12:41;;;;;;;;;;;10.80;99.90;;;;;;5070118;28;20038;-76
2022/02/09 11:15:09;;;;;;;;;;;10.90;99.90;;;;;;5062422;28;20288;-76
2022/02/09 11:17:37;;;;;;;;;;;10.90;99.90;;;;;;5063763;28;19967;-76
2022/02/09 11:20:04;;;;;;;;;;;11.00;99.90;;;;;;5060010;28;19929;-76
2022/02/09 11:22:40;;;;;;;;;;;11.00;99.90;;;;;;5066477;28;19933;-75
2022/02/09 11:25:11;;;;;;;;;;;11.00;99.90;;;;;;5061958;28;19935;-75
2022/02/09 11:27:45;;;;;;;;;;;10.80;99.90;;;;;;5062750;28;19924;-75
2022/02/09 11:30:21;;;;;;;;;;;10.70;99.90;;;;;;5060026;28;19929;-76
2022/02/09 11:33:05;;;;;;;;;;;10.70;99.90;;;;;;5070573;28;19932;-75
2022/02/09 11:35:44;;;;;;;;;;;10.70;99.90;;;;;;5058028;28;20310;-75
2022/02/09 11:38:19;;;;;;;;;;;10.70;99.90;;;;;;5053711;28;19932;-75
2022/02/09 11:40:54;;;;;;;;;;;10.70;99.90;;;;;;5068639;28;19951;-75
2022/02/09 11:43:41;;;;;;;;;;;10.80;99.90;;;;;;5060634;28;20008;-75
2022/02/09 11:52:19;;;;;;;;;;;11.10;99.90;;;;;;5105009;27;19916;-76
2022/02/09 11:54:59;;;;;;;;;;;11.20;99.90;;;;;;5097543;28;19925;-77
2022/02/09 11:58:17;;;;;;;;;;;11.30;99.90;;;;;;5103252;28;20408;-75
2022/02/09 12:00:59;;;;;;;;;;;11.60;99.90;;;;;;5107731;28;19970;-75
2022/02/09 12:09:54;;;;;;;;;;;11.80;99.90;;;;;;5054029;28;19928;-76
2022/02/09 12:12:39;;;;;;;;;;;11.80;99.90;;;;;;5087682;28;19928;-74
2022/02/09 12:15:14;;;;;;;;;;;12.10;99.90;;;;;;5087958;28;20349;-75
2022/02/09 12:17:51;;;;;;;;;;;12.20;99.90;;;;;;5094908;28;19927;-74
2022/02/09 12:20:23;;;;;;;;;;;12.00;99.90;;;;;;5092764;28;19923;-75
2022/02/09 12:23:04;;;;;;;;;;;12.10;99.90;;;;;;5100587;28;19934;-75
2022/02/09 12:25:38;;;;;;;;;;;12.10;99.90;;;;;;5096777;28;20202;-74
2022/02/09 12:28:06;;;;;;;;;;;12.00;99.90;;;;;;5099242;28;19932;-75
2022/02/09 12:30:33;;;;;;;;;;;12.10;99.90;;;;;;5089077;28;19924;-75
2022/02/09 12:32:59;;;;;;;;;;;12.20;99.90;;;;;;5098234;28;19928;-75
2022/02/09 12:35:26;;;;;;;;;;;12.40;99.90;;;;;;5096494;28;19924;-75
2022/02/09 12:37:53;;;;;;;;;;;12.30;99.90;;;;;;5091917;28;19928;-75
2022/02/09 12:40:23;;;;;;;;;;;12.30;99.90;;;;;;5094663;28;20011;-78
2022/02/09 12:42:50;;;;;;;;;;;12.50;99.90;;;;;;5091843;28;20130;-76
2022/02/09 12:45:19;;;;;;;;;;;12.70;99.90;;;;;;5095349;28;19928;-76
2022/02/09 12:47:51;;;;;;;;;;;12.80;99.90;;;;;;5092273;28;20010;-76
2022/02/09 12:50:22;;;;;;;;;;;13.10;99.90;;;;;;5093500;27;19932;-76
2022/02/09 12:52:49;;;;;;;;;;;13.20;99.10;;;;;;5114914;28;19977;-74
2022/02/09 12:55:17;;;;;;;;;;;13.20;98.60;;;;;;5117462;28;20240;-74
2022/02/09 12:57:47;;;;;;;;;;;13.00;98.60;;;;;;5107526;28;19927;-73
2022/02/09 13:00:28;;;;;;;;;;;12.60;98.60;;;;;;5109128;28;19959;-75
2022/02/09 13:02:56;;;;;;;;;;;12.70;99.30;;;;;;5096151;28;20002;-75
2022/02/09 13:05:50;;;;;;;;;;;;;;;;;;;;;
2022/02/09 13:08:28;;;;;;;;;;;12.60;98.30;;;;;;5101064;28;19931;-75
2022/02/09 13:17:53;;;;;;;;;;;12.50;98.80;;;;;;5102386;28;19928;-74
2022/02/09 13:21:04;;;;;;;;;;;12.30;98.30;;;;;;5099802;28;19952;-74
2022/02/09 13:23:40;;;;;;;;;;;12.30;98.20;;;;;;5101630;28;19943;-74
2022/02/09 14:10:23;;;;;;;;;;;12.10;98.30;;;;;;5056641;28;19932;-74
2022/02/09 14:11:31;;;;;;;;;;;12.20;98.30;;;;;;5100354;28;20503;-76
2022/02/09 14:14:10;;;;;;;;;;;12.30;98.10;;;;;;5092102;28;20019;-75
2022/02/09 14:16:58;;;;;;;;;;;12.30;97.90;;;;;;5103034;28;20018;-75
2022/02/09 14:23:46;;;;;;;;;;;12.30;98.10;;;;;;5097134;28;20118;-77
2022/02/09 14:52:43;;;;;;;;;;;11.80;98.80;;;;;;5077996;28;19928;-75
2022/02/09 14:55:26;;;;;;;;;;;11.80;98.90;;;;;;5097344;28;20450;-74
2022/02/09 14:58:04;;;;;;;;;;;11.60;98.90;;;;;;5092314;28;19977;-75
2022/02/09 15:00:33;;;;;;;;;;;11.60;99.20;;;;;;5098645;28;19975;-75
2022/02/09 15:03:06;;;;;;;;;;;11.70;99.30;;;;;;5103103;28;19934;-76
2022/02/09 15:08:14;;;;;;;;;;;11.70;99.30;;;;;;5104678;28;19977;-75
2022/02/09 15:10:46;;;;;;;;;;;11.70;98.90;;;;;;5096681;28;19928;-76
2022/02/09 15:13:29;;;;;;;;;;;11.70;99.00;;;;;;5094044;28;19977;-75
2022/02/09 15:16:04;;;;;;;;;;;11.70;99.10;;;;;;5091755;28;20334;-75
2022/02/09 15:18:51;;;;;;;;;;;11.70;98.90;;;;;;5099359;28;20023;-74
2022/02/09 15:21:26;;;;;;;;;;;11.60;98.90;;;;;;5094901;28;20038;-75
2022/02/09 15:23:56;;;;;;;;;;;11.60;99.20;;;;;;5098455;28;19967;-75
2022/02/09 15:26:23;;;;;;;;;;;11.50;99.20;;;;;;5094713;28;19955;-75
2022/02/09 15:28:52;;;;;;;;;;;11.50;99.20;;;;;;5107402;28;20022;-77
2022/02/09 15:31:24;;;;;;;;;;;11.40;99.20;;;;;;5106015;28;19973;-80
2022/02/09 15:34:02;;;;;;;;;;;11.30;99.20;;;;;;5100351;28;19931;-75
2022/02/09 15:36:47;;;;;;;;;;;11.30;99.30;;;;;;5100665;28;20417;-75
2022/02/09 15:39:15;;;;;;;;;;;11.20;99.30;;;;;;5099021;28;19938;-75
2022/02/09 15:41:58;;;;;;;;;;;11.30;99.40;;;;;;5103571;28;20225;-74
2022/02/09 15:58:22;;;;;;;;;;;11.10;99.40;;;;;;5102901;28;19930;-74
2022/02/09 16:07:05;;;;;;;;;;;11.10;99.50;;;;;;5040191;28;20033;-86
2022/02/09 16:09:31;;;;;;;;;;;11.10;99.60;;;;;;5089940;28;19924;-78
2022/02/09 16:23:39;;;;;;;;;;;10.90;99.80;;;;;;5073875;28;20298;-77
2022/02/09 16:48:42;;;;;;;;;;;10.70;99.90;;;;;;5095839;28;20011;-79
2022/02/09 16:51:15;;;;;;;;;;;10.60;99.90;;;;;;5104195;28;19924;-78
2022/02/09 16:54:07;;;;;;;;;;;10.50;99.90;;;;;;5114179;28;20014;-79
2022/02/09 17:18:49;;;;;;;;;;;10.20;99.90;;;;;;5100625;28;19931;-77
2022/02/09 17:21:21;;;;;;;;;;;10.20;99.90;;;;;;5097269;28;20017;-78
2022/02/09 17:23:57;;;;;;;;;;;10.30;99.90;;;;;;5106926;28;19960;-78
2022/02/09 17:26:24;;;;;;;;;;;10.30;99.90;;;;;;5100436;28;20306;-82
2022/02/09 17:28:58;;;;;;;;;;;10.20;99.90;;;;;;5097474;28;20007;-79
2022/02/09 17:31:31;;;;;;;;;;;10.20;99.90;;;;;;5095015;28;19947;-76
2022/02/09 17:53:23;;;;;;;;;;;10.20;99.90;;;;;;5098547;28;19931;-74
2022/02/09 17:53:29;;;;;;;;;;;10.10;99.90;;;;;;5090473;28;19949;-75
2022/02/09 17:56:01;;;;;;;;;;;10.10;99.90;;;;;;5107550;28;20351;-78
2022/02/09 17:58:35;;;;;;;;;;;10.10;99.90;;;;;;5113180;28;20031;-75
2022/02/09 18:01:03;;;;;;;;;;;10.10;99.90;;;;;;5097156;28;19928;-75
2022/02/09 18:03:30;;;;;;;;;;;10.10;99.90;;;;;;5107549;28;20030;-76
2022/02/09 18:06:07;;;;;;;;;;;10.10;99.90;;;;;;5105583;28;19928;-73
2022/02/09 18:08:40;;;;;;;;;;;10.10;99.90;;;;;;5097736;28;19938;-77
2022/02/09 18:11:19;;;;;;;;;;;10.10;99.90;;;;;;5104314;28;19930;-77
2022/02/09 18:14:15;;;;;;;;;;;10.10;99.90;;;;;;5099131;28;20099;-76
2022/02/09 18:30:46;;;;;;;;;;;10.00;99.90;;;;;;5089299;28;19924;-74
2022/02/09 18:44:12;;;;;;;;;;;10.00;99.90;;;;;;5095596;28;20014;-75
2022/02/09 18:46:56;;;;;;;;;;;10.00;99.90;;;;;;5097393;28;19928;-76
2022/02/09 19:03:31;;;;;;;;;;;9.90;99.90;;;;;;5110736;27;19930;-74
2022/02/09 19:06:01;;;;;;;;;;;9.90;99.90;;;;;;5101821;28;20462;-76
2022/02/09 19:14:15;;;;;;;;;;;9.90;99.90;;;;;;5100544;28;20266;-74
2022/02/09 19:16:53;;;;;;;;;;;9.90;99.90;;;;;;5103046;28;19927;-75
2022/02/09 19:30:39;;;;;;;;;;;9.90;99.90;;;;;;5107531;28;19923;-75
2022/02/09 19:47:07;;;;;;;;;;;9.80;99.90;;;;;;5088755;28;20031;-76
2022/02/09 19:49:52;;;;;;;;;;;9.80;99.90;;;;;;5100321;28;19939;-75
2022/02/09 19:52:32;;;;;;;;;;;9.80;99.90;;;;;;5093943;28;19928;-75
2022/02/09 19:55:19;;;;;;;;;;;9.80;99.90;;;;;;5091200;28;19964;-76
2022/02/09 19:57:46;;;;;;;;;;;9.80;99.90;;;;;;5094206;28;20307;-75
2022/02/09 20:00:17;;;;;;;;;;;9.80;99.90;;;;;;5092028;28;19928;-74
2022/02/09 20:02:47;;;;;;;;;;;9.80;99.90;;;;;;5097661;28;20054;-75
2022/02/09 20:05:15;;;;;;;;;;;9.80;99.90;;;;;;5094984;28;20391;-75
2022/02/09 20:07:41;;;;;;;;;;;9.80;99.90;;;;;;5097444;28;19930;-77
2022/02/09 20:10:10;;;;;;;;;;;9.80;99.90;;;;;;5094125;28;20325;-75
2022/02/09 20:12:36;;;;;;;;;;;9.80;99.90;;;;;;5094558;28;20022;-75
2022/02/09 20:15:03;;;;;;;;;;;9.80;99.90;;;;;;5094526;28;19954;-75
2022/02/09 20:17:30;;;;;;;;;;;9.80;99.90;;;;;;5103340;28;20129;-74
2022/02/09 20:19:58;;;;;;;;;;;9.80;99.90;;;;;;5099894;28;19997;-75
2022/02/09 20:22:26;;;;;;;;;;;9.80;99.90;;;;;;5097671;28;19931;-74
2022/02/09 20:24:53;;;;;;;;;;;9.80;99.90;;;;;;5100575;28;20027;-74
2022/02/09 20:27:22;;;;;;;;;;;9.80;99.90;;;;;;5098719;28;19969;-74
2022/02/09 20:29:49;;;;;;;;;;;9.70;99.90;;;;;;5100824;28;20136;-74
2022/02/09 20:32:20;;;;;;;;;;;9.70;99.90;;;;;;5104128;28;20054;-74
2022/02/09 20:34:52;;;;;;;;;;;9.70;99.90;;;;;;5100076;28;19935;-74
2022/02/09 20:37:20;;;;;;;;;;;9.70;99.90;;;;;;5098177;28;19927;-76
2022/02/09 20:39:58;;;;;;;;;;;9.70;99.90;;;;;;5102831;28;19975;-75
2022/02/09 20:42:25;;;;;;;;;;;9.70;99.90;;;;;;5101647;28;19978;-74
2022/02/09 20:44:57;;;;;;;;;;;9.70;99.90;;;;;;5099713;28;19931;-74
2022/02/09 20:47:24;;;;;;;;;;;9.70;99.90;;;;;;5106336;28;20297;-74
2022/02/09 20:49:51;;;;;;;;;;;9.70;99.90;;;;;;5102423;28;19928;-76
2022/02/09 20:52:17;;;;;;;;;;;9.70;99.90;;;;;;5105396;28;19924;-77
2022/02/09 20:54:44;;;;;;;;;;;9.70;99.90;;;;;;5108264;28;19930;-74
2022/02/09 20:57:12;;;;;;;;;;;9.70;99.90;;;;;;5098837;28;19930;-76
2022/02/09 20:59:43;;;;;;;;;;;9.70;99.90;;;;;;5101441;28;20006;-75
2022/02/09 21:02:34;;;;;;;;;;;9.70;99.90;;;;;;5101725;28;19970;-75
2022/02/09 21:05:20;;;;;;;;;;;9.70;99.90;;;;;;5104295;28;20451;-75
2022/02/09 21:07:56;;;;;;;;;;;9.60;99.90;;;;;;5101113;28;19932;-75
2022/02/09 21:10:35;;;;;;;;;;;9.60;99.90;;;;;;5107679;28;19932;-76
2022/02/09 21:13:09;;;;;;;;;;;9.50;99.90;;;;;;5100255;28;19924;-75
2022/02/09 21:15:47;;;;;;;;;;;9.60;99.90;;;;;;5101697;28;20005;-75
2022/02/09 21:18:42;;;;;;;;;;;9.50;99.90;;;;;;5098945;28;20454;-76
2022/02/09 21:21:51;;;;;;;;;;;9.50;99.90;;;;;;5105850;28;19973;-74
2022/02/09 21:27:28;;;;;;;;;;;9.50;99.90;;;;;;5102075;28;19930;-75
2022/02/09 21:33:14;;;;;;;;;;;9.60;99.90;;;;;;5091852;28;19924;-74
2022/02/09 21:52:30;;;;;;;;;;;9.50;99.90;;;;;;5096054;28;19978;-75
2022/02/09 21:55:10;;;;;;;;;;;9.50;99.90;;;;;;5097446;28;21807;-74
2022/02/09 21:57:40;;;;;;;;;;;9.50;99.90;;;;;;5094504;28;20409;-75
2022/02/09 22:00:27;;;;;;;;;;;9.50;99.90;;;;;;5103441;28;19932;-74
2022/02/09 22:19:08;;;;;;;;;;;9.30;99.90;;;;;;5096779;28;19945;-76
2022/02/09 22:19:56;;;;;;;;;;;9.40;99.90;;;;;;5100053;28;19931;-74
2022/02/09 22:22:39;;;;;;;;;;;9.40;99.90;;;;;;5094378;28;19967;-75
2022/02/09 22:27:55;;;;;;;;;;;9.30;99.90;;;;;;5102474;28;19924;-74
2022/02/09 22:31:17;;;;;;;;;;;9.30;99.90;;;;;;5103631;28;20030;-73
2022/02/09 22:55:31;;;;;;;;;;;9.30;99.90;;;;;;5105565;28;19976;-78
2022/02/09 22:58:03;;;;;;;;;;;9.20;99.90;;;;;;5097522;28;19924;-79
2022/02/09 23:00:38;;;;;;;;;;;9.30;99.90;;;;;;5105677;28;20023;-80
2022/02/09 23:03:05;;;;;;;;;;;9.30;99.90;;;;;;5112501;28;19923;-79
2022/02/09 23:05:45;;;;;;;;;;;9.20;99.90;;;;;;5104301;28;19932;-81
2022/02/09 23:11:33;;;;;;;;;;;9.00;99.90;;;;;;5094260;27;19917;-81
2022/02/09 23:14:07;;;;;;;;;;;8.90;99.90;;;;;;5104825;28;19980;-80
2022/02/09 23:16:56;;;;;;;;;;;8.80;99.90;;;;;;5104256;28;20018;-79
2022/02/09 23:22:51;;;;;;;;;;;8.70;99.90;;;;;;5094033;28;19927;-77
2022/02/09 23:25:46;;;;;;;;;;;8.60;99.90;;;;;;5099474;28;19924;-79
2022/02/09 23:53:44;;;;;;;;;;;8.20;99.90;;;;;;5098703;28;19931;-76
